Time;durP1;ratioP1;P1;durP2;ratioP2;P2;SDS_P1;SDS_P2;PMS_P1;PMS_P2;Temp;Humidity;BMP_temperature;BMP_pressure;BME280_temperature;BME280_humidity;BME280_pressure;Samples;Min_cycle;Max_cycle;Signal;HPM_P1;HPM_P2
2021/05/28 00:00:14;;;;;;;;;;;19.30;49.20;;;;;;461236;258;1155;-44
2021/05/28 00:02:15;;;;;;;;;;;19.30;49.50;;;;;;461389;258;1276;-44
2021/05/28 00:04:16;;;;;;;;;;;19.20;49.50;;;;;;461164;258;1074;-44
2021/05/28 00:06:18;;;;;;;;;;;19.20;49.60;;;;;;461243;258;1209;-44
2021/05/28 00:08:19;;;;;;;;;;;19.10;49.70;;;;;;461105;258;2157;-44
2021/05/28 00:10:20;;;;;;;;;;;19.10;49.70;;;;;;461411;258;1079;-44
2021/05/28 00:12:21;;;;;;;;;;;19.10;49.80;;;;;;461038;258;1313;-45
2021/05/28 00:14:23;;;;;;;;;;;19.00;50.00;;;;;;461331;258;1342;-44
2021/05/28 00:16:25;;;;;;;;;;;19.00;50.10;;;;;;461093;258;1272;-44
2021/05/28 00:18:26;;;;;;;;;;;19.00;50.20;;;;;;461409;258;1037;-44
2021/05/28 00:20:27;;;;;;;;;;;18.90;50.20;;;;;;461535;258;1101;-44
2021/05/28 00:22:29;;;;;;;;;;;18.90;50.20;;;;;;461155;258;1242;-44
2021/05/28 00:24:30;;;;;;;;;;;18.90;50.30;;;;;;461181;258;1042;-45
2021/05/28 00:26:31;;;;;;;;;;;18.90;50.30;;;;;;461259;258;1214;-44
2021/05/28 00:28:33;;;;;;;;;;;18.80;50.40;;;;;;461228;258;2211;-44
2021/05/28 00:30:34;;;;;;;;;;;18.80;50.40;;;;;;461153;258;1167;-44
2021/05/28 00:32:35;;;;;;;;;;;18.80;50.50;;;;;;461046;258;1232;-44
2021/05/28 00:34:37;;;;;;;;;;;18.70;50.50;;;;;;461122;258;1006;-44
2021/05/28 00:36:38;;;;;;;;;;;18.70;50.60;;;;;;461244;258;1221;-44
2021/05/28 00:38:39;;;;;;;;;;;18.70;50.70;;;;;;461265;258;1126;-44
2021/05/28 00:40:40;;;;;;;;;;;18.70;50.70;;;;;;461129;258;1083;-44
2021/05/28 00:42:42;;;;;;;;;;;18.70;50.70;;;;;;461527;258;1127;-44
2021/05/28 00:44:43;;;;;;;;;;;18.70;50.70;;;;;;461155;258;1384;-44
2021/05/28 00:46:44;;;;;;;;;;;18.60;50.80;;;;;;461581;258;1095;-45
2021/05/28 00:48:48;;;;;;;;;;;18.60;50.80;;;;;;461562;258;2257;-44
2021/05/28 00:50:47;;;;;;;;;;;18.60;50.80;;;;;;461321;258;1614;-44
2021/05/28 00:52:49;;;;;;;;;;;18.60;50.80;;;;;;461207;258;1054;-44
2021/05/28 00:54:50;;;;;;;;;;;18.60;50.80;;;;;;461171;258;1098;-44
2021/05/28 00:56:51;;;;;;;;;;;18.60;50.90;;;;;;461051;258;1075;-44
2021/05/28 00:58:53;;;;;;;;;;;18.50;50.90;;;;;;461230;258;1182;-44
2021/05/28 01:00:54;;;;;;;;;;;18.50;50.80;;;;;;461094;258;1263;-44
2021/05/28 01:02:55;;;;;;;;;;;18.50;50.90;;;;;;461484;258;1057;-44
2021/05/28 01:04:56;;;;;;;;;;;18.50;51.00;;;;;;461526;258;1221;-44
2021/05/28 01:06:58;;;;;;;;;;;18.60;50.80;;;;;;461148;258;1178;-44
2021/05/28 01:08:59;;;;;;;;;;;19.00;49.80;;;;;;461202;258;2129;-44
2021/05/28 01:11:00;;;;;;;;;;;19.50;48.60;;;;;;461138;258;1133;-44
2021/05/28 01:13:01;;;;;;;;;;;19.70;47.80;;;;;;461234;258;1118;-44
2021/05/28 01:15:03;;;;;;;;;;;20.00;47.20;;;;;;461177;258;1213;-44
2021/05/28 01:17:04;;;;;;;;;;;20.20;46.70;;;;;;461177;258;1083;-45
2021/05/28 01:19:05;;;;;;;;;;;20.30;46.30;;;;;;461524;258;1126;-45
2021/05/28 01:21:07;;;;;;;;;;;20.40;46.00;;;;;;461497;258;1238;-45
2021/05/28 01:23:08;;;;;;;;;;;20.50;45.80;;;;;;461136;258;2137;-44
2021/05/28 01:25:09;;;;;;;;;;;20.60;45.70;;;;;;461397;258;1113;-45
2021/05/28 01:27:10;;;;;;;;;;;20.60;45.50;;;;;;461258;258;2204;-45
2021/05/28 01:29:12;;;;;;;;;;;20.70;45.40;;;;;;461320;258;1144;-44
2021/05/28 01:31:13;;;;;;;;;;;20.80;45.20;;;;;;461211;258;1238;-44
2021/05/28 01:33:14;;;;;;;;;;;20.80;45.10;;;;;;461118;258;1301;-45
2021/05/28 01:35:16;;;;;;;;;;;20.80;45.00;;;;;;461113;258;1254;-45
2021/05/28 01:37:17;;;;;;;;;;;20.90;45.00;;;;;;461376;258;1069;-45
2021/05/28 01:39:18;;;;;;;;;;;20.90;44.90;;;;;;461182;258;1079;-44
2021/05/28 01:41:19;;;;;;;;;;;20.90;44.80;;;;;;461209;258;1251;-44
2021/05/28 01:43:21;;;;;;;;;;;21.00;44.80;;;;;;461614;258;1089;-45
2021/05/28 01:45:22;;;;;;;;;;;21.00;44.70;;;;;;461366;258;1206;-45
2021/05/28 01:47:24;;;;;;;;;;;21.00;44.60;;;;;;461553;258;2210;-44
2021/05/28 01:49:25;;;;;;;;;;;21.10;44.60;;;;;;461182;258;1048;-45
2021/05/28 01:51:26;;;;;;;;;;;21.10;44.60;;;;;;461025;258;1380;-45
2021/05/28 01:53:27;;;;;;;;;;;21.10;44.40;;;;;;461355;258;1196;-45
2021/05/28 01:55:29;;;;;;;;;;;21.20;44.50;;;;;;461089;258;1068;-44
2021/05/28 01:57:30;;;;;;;;;;;21.20;44.40;;;;;;461131;258;1154;-45
2021/05/28 01:59:31;;;;;;;;;;;21.20;44.30;;;;;;461403;258;1069;-45
2021/05/28 02:01:33;;;;;;;;;;;21.20;44.30;;;;;;461198;258;1262;-45
2021/05/28 02:03:34;;;;;;;;;;;21.30;44.20;;;;;;461384;258;1090;-45
2021/05/28 02:05:35;;;;;;;;;;;21.30;44.20;;;;;;461590;258;1068;-45
2021/05/28 02:07:38;;;;;;;;;;;21.30;44.20;;;;;;461099;258;2208;-44
2021/05/28 02:09:38;;;;;;;;;;;21.30;44.10;;;;;;461068;258;2186;-44
2021/05/28 02:11:39;;;;;;;;;;;21.30;44.00;;;;;;461142;258;1239;-45
2021/05/28 02:13:41;;;;;;;;;;;21.40;44.10;;;;;;461508;258;1052;-45
2021/05/28 02:15:42;;;;;;;;;;;21.40;44.00;;;;;;461515;258;1245;-45
2021/05/28 02:17:43;;;;;;;;;;;21.40;44.00;;;;;;461388;258;1209;-44
2021/05/28 02:19:45;;;;;;;;;;;21.40;43.90;;;;;;461441;258;1098;-45
2021/05/28 02:21:46;;;;;;;;;;;21.40;43.90;;;;;;461190;258;1112;-45
2021/05/28 02:23:47;;;;;;;;;;;21.50;43.80;;;;;;461300;258;1128;-45
2021/05/28 02:25:48;;;;;;;;;;;21.50;43.90;;;;;;461547;258;1135;-45
2021/05/28 02:27:50;;;;;;;;;;;21.50;43.80;;;;;;461256;258;2204;-44
2021/05/28 02:29:51;;;;;;;;;;;21.50;43.80;;;;;;461196;258;1315;-45
2021/05/28 02:31:52;;;;;;;;;;;21.50;43.80;;;;;;461135;258;1569;-45
2021/05/28 02:33:53;;;;;;;;;;;21.50;43.80;;;;;;461160;258;1235;-44
2021/05/28 02:35:55;;;;;;;;;;;21.50;43.70;;;;;;461262;258;1166;-45
2021/05/28 02:37:56;;;;;;;;;;;21.50;43.70;;;;;;461171;258;1185;-45
2021/05/28 02:39:57;;;;;;;;;;;21.50;43.70;;;;;;461127;258;1065;-45
2021/05/28 02:41:59;;;;;;;;;;;21.60;43.70;;;;;;461059;258;1538;-45
2021/05/28 02:44:00;;;;;;;;;;;21.60;43.70;;;;;;461403;258;1090;-44
2021/05/28 02:46:01;;;;;;;;;;;21.60;43.70;;;;;;460999;258;1314;-45
2021/05/28 02:48:02;;;;;;;;;;;21.60;43.70;;;;;;461103;258;2208;-44
2021/05/28 02:50:04;;;;;;;;;;;21.60;43.70;;;;;;461071;258;1082;-45
2021/05/28 02:52:05;;;;;;;;;;;21.60;43.60;;;;;;461082;258;1187;-45
2021/05/28 02:54:06;;;;;;;;;;;21.60;43.60;;;;;;461409;258;1087;-45
2021/05/28 02:56:07;;;;;;;;;;;21.60;43.60;;;;;;461611;258;1127;-45
2021/05/28 02:58:09;;;;;;;;;;;21.60;43.60;;;;;;461211;258;1072;-45
2021/05/28 03:00:10;;;;;;;;;;;21.60;43.60;;;;;;461353;258;1153;-45
2021/05/28 03:02:11;;;;;;;;;;;21.70;43.60;;;;;;461133;258;1222;-45
2021/05/28 03:04:14;;;;;;;;;;;21.70;43.50;;;;;;461161;258;1103;-44
2021/05/28 03:06:14;;;;;;;;;;;21.70;43.50;;;;;;461343;258;1949;-45
2021/05/28 03:08:15;;;;;;;;;;;21.70;43.50;;;;;;461086;258;2157;-45
2021/05/28 03:10:16;;;;;;;;;;;21.70;43.50;;;;;;461066;258;1103;-45
2021/05/28 03:12:18;;;;;;;;;;;21.70;43.50;;;;;;461099;258;1084;-45
2021/05/28 03:14:19;;;;;;;;;;;21.70;43.50;;;;;;461101;258;1251;-44
2021/05/28 03:16:20;;;;;;;;;;;21.70;43.50;;;;;;461088;258;1084;-45
2021/05/28 03:18:22;;;;;;;;;;;21.80;43.50;;;;;;461122;258;1179;-45
2021/05/28 03:20:27;;;;;;;;;;;21.70;43.40;;;;;;461103;258;2026;-45
2021/05/28 03:22:34;;;;;;;;;;;21.80;43.50;;;;;;460996;258;1677;-45
2021/05/28 03:24:35;;;;;;;;;;;21.80;43.50;;;;;;461615;258;1079;-45
2021/05/28 03:26:36;;;;;;;;;;;21.80;43.40;;;;;;461540;258;1020;-45
2021/05/28 03:28:38;;;;;;;;;;;21.80;43.40;;;;;;461433;258;2160;-44
2021/05/28 03:30:39;;;;;;;;;;;21.80;43.40;;;;;;461456;258;1072;-45
2021/05/28 03:32:40;;;;;;;;;;;21.80;43.40;;;;;;461327;258;1143;-45
2021/05/28 03:34:41;;;;;;;;;;;21.80;43.50;;;;;;461407;258;1065;-44
2021/05/28 03:36:43;;;;;;;;;;;21.90;43.30;;;;;;461531;258;1191;-45
2021/05/28 03:38:44;;;;;;;;;;;21.70;43.60;;;;;;461145;258;1091;-44
2021/05/28 03:40:45;;;;;;;;;;;21.20;44.70;;;;;;461255;258;1153;-45
2021/05/28 03:42:46;;;;;;;;;;;20.70;45.90;;;;;;461099;258;1144;-44
2021/05/28 03:44:48;;;;;;;;;;;20.30;46.80;;;;;;461122;258;1114;-44
2021/05/28 03:46:49;;;;;;;;;;;20.00;47.50;;;;;;461261;258;1055;-44
2021/05/28 03:48:51;;;;;;;;;;;19.80;48.00;;;;;;461171;258;2200;-44
2021/05/28 03:50:52;;;;;;;;;;;19.70;48.30;;;;;;461546;258;1030;-45
2021/05/28 03:52:53;;;;;;;;;;;19.60;48.60;;;;;;461168;258;1096;-44
2021/05/28 03:54:54;;;;;;;;;;;19.50;48.80;;;;;;461292;258;1021;-44
2021/05/28 03:56:56;;;;;;;;;;;19.40;49.10;;;;;;461150;258;1066;-44
2021/05/28 03:58:57;;;;;;;;;;;19.40;49.20;;;;;;461616;258;1060;-45
2021/05/28 04:00:58;;;;;;;;;;;19.40;49.40;;;;;;461587;258;1075;-44
2021/05/28 04:02:59;;;;;;;;;;;19.30;49.40;;;;;;461283;258;1141;-44
2021/05/28 04:05:01;;;;;;;;;;;19.20;49.60;;;;;;461488;258;1075;-44
2021/05/28 04:07:02;;;;;;;;;;;19.20;49.70;;;;;;461342;258;1128;-44
2021/05/28 04:09:03;;;;;;;;;;;19.20;49.90;;;;;;461473;258;2145;-44
2021/05/28 04:11:05;;;;;;;;;;;19.10;49.90;;;;;;461390;258;1138;-44
2021/05/28 04:13:06;;;;;;;;;;;19.10;50.00;;;;;;461200;258;1084;-44
2021/05/28 04:15:07;;;;;;;;;;;19.00;50.20;;;;;;461301;258;1160;-44
2021/05/28 04:17:08;;;;;;;;;;;19.00;50.10;;;;;;461099;258;1081;-45
2021/05/28 04:19:10;;;;;;;;;;;19.00;50.20;;;;;;461196;258;1170;-44
2021/05/28 04:21:11;;;;;;;;;;;18.90;50.40;;;;;;461125;258;1235;-44
2021/05/28 04:23:12;;;;;;;;;;;18.90;50.40;;;;;;461252;258;1125;-44
2021/05/28 04:25:13;;;;;;;;;;;18.90;50.40;;;;;;461135;258;1098;-44
2021/05/28 04:27:15;;;;;;;;;;;18.90;50.40;;;;;;461008;258;1188;-45
2021/05/28 04:29:18;;;;;;;;;;;18.80;50.50;;;;;;461174;258;2165;-45
2021/05/28 04:31:18;;;;;;;;;;;18.80;50.50;;;;;;460909;258;2737;-44
2021/05/28 04:33:19;;;;;;;;;;;18.80;50.60;;;;;;461067;258;1204;-45
2021/05/28 04:35:20;;;;;;;;;;;18.70;50.70;;;;;;461069;258;1109;-44
2021/05/28 04:37:21;;;;;;;;;;;18.80;50.70;;;;;;461273;258;1197;-44
2021/05/28 04:39:23;;;;;;;;;;;18.70;50.70;;;;;;461024;258;1116;-44
2021/05/28 04:41:24;;;;;;;;;;;18.70;50.70;;;;;;461069;258;1408;-44
2021/05/28 04:43:25;;;;;;;;;;;18.70;50.80;;;;;;460979;258;1096;-44
2021/05/28 04:45:27;;;;;;;;;;;18.60;50.80;;;;;;461069;258;1299;-44
2021/05/28 04:47:28;;;;;;;;;;;18.60;50.90;;;;;;461154;258;1077;-45
2021/05/28 04:49:29;;;;;;;;;;;18.60;50.90;;;;;;461016;258;2212;-44
2021/05/28 04:51:31;;;;;;;;;;;18.60;51.00;;;;;;460906;258;1110;-44
2021/05/28 04:53:32;;;;;;;;;;;18.60;50.90;;;;;;461132;258;1057;-44
2021/05/28 04:55:33;;;;;;;;;;;18.60;50.90;;;;;;461111;258;1330;-44
2021/05/28 04:57:34;;;;;;;;;;;18.60;51.00;;;;;;461341;258;1189;-44
2021/05/28 04:59:36;;;;;;;;;;;18.60;50.90;;;;;;461073;258;1430;-44
2021/05/28 05:01:37;;;;;;;;;;;18.50;51.00;;;;;;461140;258;1108;-44
2021/05/28 05:03:38;;;;;;;;;;;18.60;51.00;;;;;;461229;258;1224;-44
2021/05/28 05:05:40;;;;;;;;;;;18.50;51.00;;;;;;461042;258;1205;-44
2021/05/28 05:07:41;;;;;;;;;;;18.50;51.00;;;;;;461140;258;1257;-44
2021/05/28 05:09:42;;;;;;;;;;;18.50;51.10;;;;;;461055;258;2169;-44
2021/05/28 05:11:43;;;;;;;;;;;18.40;51.10;;;;;;461039;258;1171;-44
2021/05/28 05:13:45;;;;;;;;;;;18.50;51.20;;;;;;461097;258;1093;-45
2021/05/28 05:15:46;;;;;;;;;;;18.60;50.80;;;;;;460969;258;1181;-44
2021/05/28 05:17:47;;;;;;;;;;;19.00;49.70;;;;;;461086;258;1365;-44
2021/05/28 05:19:49;;;;;;;;;;;19.40;48.70;;;;;;461110;258;1219;-44
2021/05/28 05:21:52;;;;;;;;;;;19.70;47.90;;;;;;460828;258;1344;-45
2021/05/28 05:23:51;;;;;;;;;;;20.00;47.40;;;;;;461105;258;1397;-44
2021/05/28 05:25:53;;;;;;;;;;;20.10;46.90;;;;;;460854;258;1255;-45
2021/05/28 05:27:54;;;;;;;;;;;20.20;46.60;;;;;;460899;258;1231;-44
2021/05/28 05:29:55;;;;;;;;;;;20.30;46.30;;;;;;460780;258;2203;-45
2021/05/28 05:31:56;;;;;;;;;;;20.40;46.20;;;;;;460893;258;1179;-45
2021/05/28 05:33:58;;;;;;;;;;;20.50;46.00;;;;;;460574;258;1160;-44
2021/05/28 05:35:59;;;;;;;;;;;20.50;45.80;;;;;;460659;258;1315;-44
2021/05/28 05:38:00;;;;;;;;;;;20.60;45.80;;;;;;460563;258;1224;-44
2021/05/28 05:40:01;;;;;;;;;;;20.60;45.70;;;;;;460722;258;1108;-44
2021/05/28 05:42:03;;;;;;;;;;;20.60;45.50;;;;;;460543;258;1184;-44
2021/05/28 05:44:04;;;;;;;;;;;20.70;45.50;;;;;;460596;258;1111;-45
2021/05/28 05:46:05;;;;;;;;;;;20.70;45.30;;;;;;460529;258;1244;-45
2021/05/28 05:48:07;;;;;;;;;;;20.80;45.30;;;;;;460561;258;1309;-45
2021/05/28 05:50:08;;;;;;;;;;;20.80;45.10;;;;;;460677;258;2204;-45
2021/05/28 05:52:09;;;;;;;;;;;20.90;45.00;;;;;;460438;258;1328;-44
2021/05/28 05:54:10;;;;;;;;;;;20.90;44.90;;;;;;460618;258;1123;-45
2021/05/28 05:56:12;;;;;;;;;;;20.90;44.80;;;;;;460530;258;1145;-45
2021/05/28 05:58:13;;;;;;;;;;;21.00;44.80;;;;;;460680;258;1104;-44
2021/05/28 06:00:14;;;;;;;;;;;21.00;44.80;;;;;;460635;258;1175;-44
2021/05/28 06:02:16;;;;;;;;;;;21.00;44.70;;;;;;460650;258;1159;-45
2021/05/28 06:04:17;;;;;;;;;;;21.10;44.70;;;;;;460458;258;1290;-45
2021/05/28 06:06:18;;;;;;;;;;;21.10;44.60;;;;;;460402;258;1454;-44
2021/05/28 06:08:19;;;;;;;;;;;21.10;44.50;;;;;;460696;258;1227;-45
2021/05/28 06:10:21;;;;;;;;;;;21.10;44.50;;;;;;460367;258;2200;-45
2021/05/28 06:12:22;;;;;;;;;;;21.20;44.50;;;;;;460572;258;1208;-44
2021/05/28 06:14:23;;;;;;;;;;;21.20;44.50;;;;;;460979;258;1089;-45
2021/05/28 06:16:25;;;;;;;;;;;21.20;44.40;;;;;;460819;258;1477;-45
2021/05/28 06:18:26;;;;;;;;;;;21.20;44.40;;;;;;460941;258;1136;-44
2021/05/28 06:20:27;;;;;;;;;;;21.20;44.30;;;;;;460739;258;1085;-44
2021/05/28 06:22:28;;;;;;;;;;;21.30;44.30;;;;;;460820;258;1141;-44
2021/05/28 06:24:30;;;;;;;;;;;21.30;44.30;;;;;;460726;258;1107;-45
2021/05/28 06:26:31;;;;;;;;;;;21.30;44.20;;;;;;460737;258;1230;-45
2021/05/28 06:28:32;;;;;;;;;;;21.30;44.20;;;;;;461016;258;1090;-44
2021/05/28 06:30:33;;;;;;;;;;;21.30;44.10;;;;;;460733;258;2207;-45
2021/05/28 06:32:35;;;;;;;;;;;21.40;44.20;;;;;;460845;258;1246;-45
2021/05/28 06:34:37;;;;;;;;;;;21.40;44.10;;;;;;460882;258;1166;-45
2021/05/28 06:36:37;;;;;;;;;;;21.40;44.10;;;;;;460979;258;2387;-44
2021/05/28 06:38:39;;;;;;;;;;;21.40;44.10;;;;;;460745;258;1138;-45
2021/05/28 06:40:40;;;;;;;;;;;21.40;44.00;;;;;;460886;258;1135;-44
2021/05/28 06:42:41;;;;;;;;;;;21.40;44.00;;;;;;460632;258;1116;-45
2021/05/28 06:44:43;;;;;;;;;;;21.40;44.00;;;;;;460710;258;1094;-45
2021/05/28 06:46:44;;;;;;;;;;;21.50;44.00;;;;;;460453;258;1204;-45
2021/05/28 06:48:45;;;;;;;;;;;21.50;43.90;;;;;;460740;258;1089;-45
2021/05/28 06:50:47;;;;;;;;;;;21.50;43.90;;;;;;460834;258;2207;-45
2021/05/28 06:52:48;;;;;;;;;;;21.50;43.90;;;;;;460757;258;1111;-45
2021/05/28 06:54:49;;;;;;;;;;;21.40;43.90;;;;;;460677;258;1091;-45
2021/05/28 06:56:51;;;;;;;;;;;21.50;43.90;;;;;;460574;258;1100;-44
2021/05/28 06:58:52;;;;;;;;;;;21.50;43.80;;;;;;460456;258;1158;-45
2021/05/28 07:00:53;;;;;;;;;;;21.50;43.90;;;;;;460342;258;1279;-45
2021/05/28 07:02:55;;;;;;;;;;;21.50;43.90;;;;;;460466;258;1183;-45
2021/05/28 07:04:56;;;;;;;;;;;21.60;43.80;;;;;;460363;258;1319;-45
2021/05/28 07:06:57;;;;;;;;;;;21.60;43.80;;;;;;460580;258;1190;-44
2021/05/28 07:08:58;;;;;;;;;;;21.60;43.80;;;;;;460613;258;1378;-44
2021/05/28 07:11:00;;;;;;;;;;;21.60;43.70;;;;;;460464;258;2196;-45
2021/05/28 07:13:01;;;;;;;;;;;21.60;43.60;;;;;;460526;258;1197;-44
2021/05/28 07:15:02;;;;;;;;;;;21.60;43.60;;;;;;460358;258;1111;-45
2021/05/28 07:17:03;;;;;;;;;;;21.70;43.60;;;;;;460442;258;1351;-45
2021/05/28 07:19:05;;;;;;;;;;;21.70;43.60;;;;;;460520;258;1104;-45
2021/05/28 07:21:06;;;;;;;;;;;21.70;43.60;;;;;;460798;258;1399;-45
2021/05/28 07:23:07;;;;;;;;;;;21.70;43.60;;;;;;460735;258;1090;-45
2021/05/28 07:25:09;;;;;;;;;;;21.70;43.50;;;;;;460444;258;1295;-44
2021/05/28 07:27:10;;;;;;;;;;;21.80;43.60;;;;;;460540;258;1188;-45
2021/05/28 07:29:11;;;;;;;;;;;21.80;43.60;;;;;;460646;258;2161;-45
2021/05/28 07:31:12;;;;;;;;;;;21.80;43.50;;;;;;460447;258;1628;-45
2021/05/28 07:33:14;;;;;;;;;;;21.80;43.60;;;;;;460746;258;1021;-45
2021/05/28 07:35:15;;;;;;;;;;;21.80;43.50;;;;;;460611;258;1130;-45
2021/05/28 07:37:16;;;;;;;;;;;21.80;43.60;;;;;;460357;258;1157;-45
2021/05/28 07:39:19;;;;;;;;;;;21.80;43.60;;;;;;460513;258;1222;-45
2021/05/28 07:41:20;;;;;;;;;;;21.80;43.50;;;;;;460252;258;2309;-45
2021/05/28 07:43:21;;;;;;;;;;;21.80;43.50;;;;;;460141;258;1123;-45
2021/05/28 07:45:22;;;;;;;;;;;21.80;43.40;;;;;;460234;258;1174;-45
2021/05/28 07:47:23;;;;;;;;;;;21.80;43.40;;;;;;460265;258;1112;-45
2021/05/28 07:49:25;;;;;;;;;;;21.80;43.50;;;;;;460421;258;2211;-45
2021/05/28 07:51:26;;;;;;;;;;;21.90;43.50;;;;;;460362;258;1138;-44
2021/05/28 07:53:28;;;;;;;;;;;21.80;43.40;;;;;;460342;258;1234;-45
2021/05/28 07:55:29;;;;;;;;;;;21.90;43.40;;;;;;460447;258;1141;-44
2021/05/28 07:57:30;;;;;;;;;;;21.80;43.60;;;;;;460259;258;1212;-44
2021/05/28 07:59:31;;;;;;;;;;;21.30;44.40;;;;;;460300;258;1137;-45
2021/05/28 08:01:33;;;;;;;;;;;20.80;45.80;;;;;;460228;258;1136;-44
2021/05/28 08:03:34;;;;;;;;;;;20.40;46.70;;;;;;460346;258;1124;-44
2021/05/28 08:05:35;;;;;;;;;;;20.10;47.60;;;;;;460348;258;1185;-44
2021/05/28 08:07:37;;;;;;;;;;;19.90;48.00;;;;;;460422;258;1427;-44
2021/05/28 08:09:38;;;;;;;;;;;19.80;48.40;;;;;;460789;258;2187;-44
2021/05/28 08:11:39;;;;;;;;;;;19.70;48.70;;;;;;460586;258;1429;-45
2021/05/28 08:13:40;;;;;;;;;;;19.60;48.90;;;;;;460888;258;803;-44
2021/05/28 08:15:42;;;;;;;;;;;19.50;49.10;;;;;;460391;258;1157;-44
2021/05/28 08:17:43;;;;;;;;;;;19.40;49.10;;;;;;460751;258;1364;-44
2021/05/28 08:19:44;;;;;;;;;;;19.40;49.30;;;;;;460408;258;1063;-44
2021/05/28 08:21:45;;;;;;;;;;;19.30;49.50;;;;;;460407;258;1607;-44
2021/05/28 08:23:47;;;;;;;;;;;19.20;49.60;;;;;;460577;258;771;-44
2021/05/28 08:25:49;;;;;;;;;;;19.20;49.80;;;;;;460516;258;1187;-44
2021/05/28 08:27:50;;;;;;;;;;;19.20;49.90;;;;;;460515;258;1186;-45
2021/05/28 08:29:51;;;;;;;;;;;19.10;50.00;;;;;;460910;258;2212;-44
2021/05/28 08:31:53;;;;;;;;;;;19.10;50.10;;;;;;460388;258;1164;-44
2021/05/28 08:33:55;;;;;;;;;;;19.10;50.10;;;;;;460434;258;1151;-44
2021/05/28 08:35:56;;;;;;;;;;;19.10;50.10;;;;;;460463;258;1257;-44
2021/05/28 08:37:57;;;;;;;;;;;19.00;50.10;;;;;;460573;258;1118;-44
2021/05/28 08:39:58;;;;;;;;;;;19.00;50.30;;;;;;460408;258;1106;-44
2021/05/28 08:42:00;;;;;;;;;;;18.90;50.40;;;;;;460487;258;1414;-44
2021/05/28 08:44:01;;;;;;;;;;;19.00;50.40;;;;;;460346;258;1397;-44
2021/05/28 08:46:06;;;;;;;;;;;18.90;50.40;;;;;;460245;258;1232;-44
2021/05/28 08:48:03;;;;;;;;;;;18.80;50.50;;;;;;460693;258;1715;-44
2021/05/28 08:50:05;;;;;;;;;;;18.90;50.50;;;;;;460309;258;2195;-44
2021/05/28 08:52:06;;;;;;;;;;;18.80;50.50;;;;;;460390;258;1249;-44
2021/05/28 08:54:07;;;;;;;;;;;18.80;50.60;;;;;;460274;258;1101;-44
2021/05/28 08:56:09;;;;;;;;;;;18.80;50.60;;;;;;460256;258;1250;-44
2021/05/28 08:58:10;;;;;;;;;;;18.80;50.70;;;;;;460353;258;1265;-44
2021/05/28 09:00:11;;;;;;;;;;;18.80;50.70;;;;;;460301;258;1217;-44
2021/05/28 09:02:13;;;;;;;;;;;18.70;50.70;;;;;;460261;258;1213;-44
2021/05/28 09:04:14;;;;;;;;;;;18.70;50.80;;;;;;460312;258;1190;-44
2021/05/28 09:06:15;;;;;;;;;;;18.70;50.90;;;;;;460368;258;1281;-44
2021/05/28 09:08:17;;;;;;;;;;;18.60;50.90;;;;;;460364;258;1124;-44
2021/05/28 09:10:18;;;;;;;;;;;18.60;50.90;;;;;;460299;258;2196;-44
2021/05/28 09:12:19;;;;;;;;;;;18.60;51.00;;;;;;460255;258;1226;-45
2021/05/28 09:14:22;;;;;;;;;;;18.60;51.00;;;;;;460293;258;1160;-44
2021/05/28 09:16:23;;;;;;;;;;;18.60;51.00;;;;;;460272;258;1234;-44
2021/05/28 09:18:25;;;;;;;;;;;18.60;51.00;;;;;;459788;258;1110;-44
2021/05/28 09:20:26;;;;;;;;;;;18.60;51.10;;;;;;460521;258;1141;-44
2021/05/28 09:22:27;;;;;;;;;;;18.60;51.00;;;;;;460453;258;1119;-44
2021/05/28 09:24:30;;;;;;;;;;;18.60;50.90;;;;;;460475;258;1175;-44
2021/05/28 09:26:30;;;;;;;;;;;18.60;50.90;;;;;;460476;258;1440;-44
2021/05/28 09:28:31;;;;;;;;;;;18.60;51.00;;;;;;460455;258;1176;-44
2021/05/28 09:30:33;;;;;;;;;;;18.50;51.10;;;;;;460284;258;2199;-44
2021/05/28 09:32:34;;;;;;;;;;;18.50;51.10;;;;;;460444;258;1183;-44
2021/05/28 09:34:37;;;;;;;;;;;18.50;51.20;;;;;;460574;258;1095;-44
2021/05/28 09:36:37;;;;;;;;;;;18.40;51.20;;;;;;460410;258;2077;-44
2021/05/28 09:38:38;;;;;;;;;;;18.40;51.30;;;;;;460548;258;1150;-44
2021/05/28 09:40:39;;;;;;;;;;;18.40;51.20;;;;;;460379;258;1320;-44
2021/05/28 09:42:40;;;;;;;;;;;18.40;51.20;;;;;;460343;258;1300;-45
2021/05/28 09:44:42;;;;;;;;;;;18.40;51.30;;;;;;460367;258;1145;-44
2021/05/28 09:46:43;;;;;;;;;;;18.40;51.30;;;;;;460429;258;1234;-44
2021/05/28 09:48:44;;;;;;;;;;;18.40;51.30;;;;;;460805;258;1207;-44
2021/05/28 09:50:45;;;;;;;;;;;18.30;51.20;;;;;;460315;258;2145;-44
2021/05/28 09:52:49;;;;;;;;;;;18.40;51.30;;;;;;460975;258;1247;-44
2021/05/28 09:54:48;;;;;;;;;;;18.40;51.20;;;;;;460470;258;1988;-44
2021/05/28 09:56:49;;;;;;;;;;;18.40;51.10;;;;;;460621;258;1567;-45
2021/05/28 09:58:51;;;;;;;;;;;18.70;50.60;;;;;;460660;258;1207;-44
2021/05/28 10:00:52;;;;;;;;;;;19.10;49.50;;;;;;460481;258;1311;-44
2021/05/28 10:02:53;;;;;;;;;;;19.40;48.50;;;;;;460531;258;1201;-44
2021/05/28 10:04:54;;;;;;;;;;;19.70;47.80;;;;;;460661;258;1197;-45
2021/05/28 10:06:56;;;;;;;;;;;19.90;47.30;;;;;;460459;258;1191;-45
2021/05/28 10:08:57;;;;;;;;;;;20.10;46.80;;;;;;460312;258;1228;-44
2021/05/28 10:10:59;;;;;;;;;;;20.20;46.60;;;;;;460339;258;2200;-44
2021/05/28 10:13:09;;;;;;;;;;;20.30;46.30;;;;;;460504;258;1149;-45
2021/05/28 10:15:01;;;;;;;;;;;20.30;46.20;;;;;;459969;258;2097;-45
2021/05/28 10:17:02;;;;;;;;;;;20.40;46.00;;;;;;460452;258;1296;-45
2021/05/28 10:19:04;;;;;;;;;;;20.40;45.80;;;;;;460639;258;1105;-44
2021/05/28 10:21:05;;;;;;;;;;;20.50;45.80;;;;;;460408;258;1226;-45
2021/05/28 10:23:06;;;;;;;;;;;20.60;45.70;;;;;;460914;258;1097;-45
2021/05/28 10:25:07;;;;;;;;;;;20.60;45.60;;;;;;460541;258;978;-45
2021/05/28 10:27:09;;;;;;;;;;;20.60;45.40;;;;;;460268;258;1457;-45
2021/05/28 10:29:10;;;;;;;;;;;20.70;45.30;;;;;;460444;258;1145;-44
2021/05/28 10:31:11;;;;;;;;;;;20.70;45.20;;;;;;460230;258;2216;-45
2021/05/28 10:33:13;;;;;;;;;;;20.80;45.20;;;;;;460311;258;1132;-44
2021/05/28 10:35:16;;;;;;;;;;;20.80;45.10;;;;;;460163;258;1243;-45
2021/05/28 10:37:15;;;;;;;;;;;20.80;45.00;;;;;;460123;258;2321;-44
2021/05/28 10:39:17;;;;;;;;;;;20.90;44.90;;;;;;460301;258;1273;-45
2021/05/28 10:41:18;;;;;;;;;;;20.90;44.90;;;;;;460866;258;1368;-45
2021/05/28 10:43:19;;;;;;;;;;;20.90;44.80;;;;;;460354;258;1338;-44
2021/05/28 10:45:21;;;;;;;;;;;21.00;44.80;;;;;;460560;258;1242;-45
2021/05/28 10:47:22;;;;;;;;;;;21.00;44.70;;;;;;460490;258;1939;-44
2021/05/28 10:49:24;;;;;;;;;;;21.00;44.70;;;;;;460519;258;1113;-45
2021/05/28 10:51:25;;;;;;;;;;;21.10;44.60;;;;;;460407;258;2200;-44
2021/05/28 10:53:26;;;;;;;;;;;21.10;44.60;;;;;;460366;258;1160;-45
2021/05/28 10:55:28;;;;;;;;;;;21.10;44.60;;;;;;460476;258;1225;-45
2021/05/28 10:57:29;;;;;;;;;;;21.10;44.50;;;;;;460516;258;1214;-44
2021/05/28 10:59:30;;;;;;;;;;;21.10;44.50;;;;;;460409;258;1217;-45
2021/05/28 11:01:31;;;;;;;;;;;21.10;44.40;;;;;;460443;258;1113;-45
2021/05/28 11:03:33;;;;;;;;;;;21.20;44.40;;;;;;460431;258;1196;-45
2021/05/28 11:05:34;;;;;;;;;;;21.20;44.40;;;;;;460436;258;1146;-44
2021/05/28 11:07:35;;;;;;;;;;;21.20;44.40;;;;;;460423;258;1192;-45
2021/05/28 11:09:36;;;;;;;;;;;21.20;44.30;;;;;;460569;258;1108;-45
2021/05/28 11:11:38;;;;;;;;;;;21.20;44.30;;;;;;460198;258;2192;-45
2021/05/28 11:13:39;;;;;;;;;;;21.30;44.30;;;;;;460665;258;1304;-44
2021/05/28 11:15:40;;;;;;;;;;;21.30;44.20;;;;;;460603;258;1211;-45
2021/05/28 11:17:42;;;;;;;;;;;21.30;44.10;;;;;;460502;258;2332;-45
2021/05/28 11:19:43;;;;;;;;;;;21.30;44.10;;;;;;460618;258;1067;-45
2021/05/28 11:21:44;;;;;;;;;;;21.40;44.10;;;;;;460624;258;1133;-45
2021/05/28 11:23:46;;;;;;;;;;;21.40;44.10;;;;;;460477;258;1103;-45
2021/05/28 11:25:47;;;;;;;;;;;21.40;44.10;;;;;;460779;258;1149;-45
2021/05/28 11:27:54;;;;;;;;;;;21.40;44.00;;;;;;460506;258;1158;-44
2021/05/28 11:29:51;;;;;;;;;;;21.40;44.00;;;;;;460252;258;1307;-45
2021/05/28 11:31:53;;;;;;;;;;;21.40;44.00;;;;;;460330;258;2200;-45
2021/05/28 11:33:54;;;;;;;;;;;21.50;44.00;;;;;;460592;258;1104;-45
2021/05/28 11:35:55;;;;;;;;;;;21.50;43.90;;;;;;460595;258;1091;-45
2021/05/28 11:37:58;;;;;;;;;;;21.50;43.90;;;;;;460541;258;1073;-45
2021/05/28 11:39:58;;;;;;;;;;;21.50;43.80;;;;;;460512;258;2082;-45
2021/05/28 11:42:00;;;;;;;;;;;21.50;43.80;;;;;;460560;258;1453;-44
2021/05/28 11:44:01;;;;;;;;;;;21.50;43.80;;;;;;460535;258;2517;-45
2021/05/28 11:46:02;;;;;;;;;;;21.50;43.80;;;;;;460551;258;1169;-45
2021/05/28 11:48:04;;;;;;;;;;;21.60;43.80;;;;;;460497;258;1092;-45
2021/05/28 11:50:05;;;;;;;;;;;21.60;43.80;;;;;;460631;258;1117;-45
2021/05/28 11:52:07;;;;;;;;;;;21.60;43.70;;;;;;460585;258;2227;-45
2021/05/28 11:54:08;;;;;;;;;;;21.60;43.80;;;;;;460377;258;1999;-45
2021/05/28 11:56:09;;;;;;;;;;;21.60;43.80;;;;;;460354;258;1141;-45